Time;durP1;ratioP1;P1;durP2;ratioP2;P2;SDS_P1;SDS_P2;PMS_P1;PMS_P2;Temp;Humidity;BMP_temperature;BMP_pressure;BME280_temperature;BME280_humidity;BME280_pressure;Samples;Min_cycle;Max_cycle;Signal;HPM_P1;HPM_P2
2022/11/03 05:41:23;;;;;;;48.78;27.05;;;;;;;6.94;95.12;100323.61;1663789;85;21150;-45
2022/11/03 05:43:55;;;;;;;50.52;27.62;;;;;;;7.00;95.23;100326.30;1658158;86;21545;-45
2022/11/03 05:46:23;;;;;;;40.78;25.57;;;;;;;7.04;95.03;100328.11;1647912;86;21086;-44
2022/11/03 05:48:50;;;;;;;49.38;26.93;;;;;;;7.06;94.71;100326.39;1660717;86;21609;-45
2022/11/03 05:51:26;;;;;;;40.75;24.18;;;;;;;7.09;94.49;100328.19;1648889;85;21490;-45
2022/11/03 05:53:56;;;;;;;42.90;25.05;;;;;;;7.11;94.50;100342.95;1639399;86;21097;-40
2022/11/03 05:56:24;;;;;;;44.45;25.23;;;;;;;7.12;94.03;100339.92;1659875;86;21021;-38
2022/11/03 05:58:53;;;;;;;46.35;25.30;;;;;;;7.13;93.98;100348.17;1650044;84;21117;-41
2022/11/03 06:01:25;;;;;;;43.95;23.00;;;;;;;7.14;94.06;100357.75;1653804;85;21783;-46
2022/11/03 06:03:52;;;;;;;39.63;23.57;;;;;;;7.18;94.12;100353.89;1639963;84;21069;-39
2022/11/03 06:06:34;;;;;;;40.08;23.07;;;;;;;7.22;94.13;100358.72;1672429;84;20977;-39
2022/11/03 06:09:03;;;;;;;38.30;21.97;;;;;;;7.27;94.48;100353.59;1646322;86;21113;-37
2022/11/03 06:11:32;;;;;;;36.48;21.37;;;;;;;7.32;94.38;100355.84;1623863;86;21433;-44
2022/11/03 06:13:59;;;;;;;38.88;21.17;;;;;;;7.35;94.24;100356.73;1616171;86;21125;-46
2022/11/03 06:16:40;;;;;;;35.52;21.10;;;;;;;7.39;94.38;100363.74;1669085;85;21048;-40
2022/11/03 06:19:41;;;;;;;39.10;21.93;;;;;;;7.41;94.19;100359.42;1657225;84;21603;-46
2022/11/03 06:22:18;;;;;;;43.85;23.73;;;;;;;7.45;94.19;100352.54;1624427;87;21514;-39
2022/11/03 06:24:46;;;;;;;37.98;22.07;;;;;;;7.51;94.34;100358.26;1650719;86;21083;-44
2022/11/03 06:27:15;;;;;;;41.28;21.70;;;;;;;7.55;94.42;100359.63;1614453;87;21021;-39
2022/11/03 06:29:51;;;;;;;38.58;22.60;;;;;;;7.59;94.23;100349.67;1644785;85;21662;-47
2022/11/03 06:32:17;;;;;;;37.58;21.87;;;;;;;7.67;94.22;100345.89;1655533;85;21039;-46
2022/11/03 06:34:49;;;;;;;42.30;23.95;;;;;;;7.75;94.06;100331.22;1633784;86;21095;-39
2022/11/03 06:37:29;;;;;;;35.20;22.00;;;;;;;7.84;93.95;100336.98;1612520;87;21004;-47
2022/11/03 06:40:15;;;;;;;36.13;21.42;;;;;;;7.93;93.82;100344.88;1632673;86;21066;-47
2022/11/03 06:42:42;;;;;;;36.15;20.97;;;;;;;8.00;93.70;100342.78;1622829;86;21493;-36
2022/11/03 06:45:22;;;;;;;38.15;21.50;;;;;;;8.06;93.21;100341.98;1624085;86;21088;-46
2022/11/03 06:47:49;;;;;;;36.88;20.62;;;;;;;8.08;92.69;100348.97;1634529;86;21040;-45
2022/11/03 06:50:29;;;;;;;33.55;19.30;;;;;;;8.13;92.54;100354.24;1644321;85;21584;-46
2022/11/03 06:52:56;;;;;;;37.45;20.77;;;;;;;8.14;92.39;100359.89;1654482;85;21024;-38
2022/11/03 06:55:35;;;;;;;37.38;20.40;;;;;;;8.13;92.40;100351.20;1648967;86;21061;-46
2022/11/03 06:58:16;;;;;;;39.92;21.07;;;;;;;8.15;92.72;100358.60;1646766;86;21556;-38
2022/11/03 07:00:42;;;;;;;36.77;21.25;;;;;;;8.17;92.90;100347.75;1643305;85;21497;-45
2022/11/03 07:03:32;;;;;;;60.48;24.55;;;;;;;8.18;92.76;100344.31;1642433;85;21761;-38
2022/11/03 07:06:20;;;;;;;43.23;23.57;;;;;;;8.18;92.92;100340.41;1649884;85;21039;-45
2022/11/03 07:08:57;;;;;;;35.17;21.48;;;;;;;8.21;92.90;100335.20;1653300;84;21141;-45
2022/11/03 07:11:30;;;;;;;53.08;25.08;;;;;;;8.26;93.09;100340.47;1588920;88;21072;-38
2022/11/03 07:14:00;;;;;;;39.60;24.65;;;;;;;8.27;93.36;100339.17;1617745;87;21093;-46
2022/11/03 07:16:46;;;;;;;41.23;23.83;;;;;;;8.29;93.45;100336.58;1587223;88;21010;-46
2022/11/03 07:19:27;;;;;;;40.70;22.93;;;;;;;8.32;93.59;100342.27;1591533;88;21130;-45
2022/11/03 07:21:58;;;;;;;36.95;19.23;;;;;;;8.35;93.65;100344.89;1634906;85;21048;-38
2022/11/03 07:24:33;;;;;;;31.23;18.62;;;;;;;8.32;93.02;100354.87;1649970;85;21121;-45
2022/11/03 07:27:30;;;;;;;27.73;18.07;;;;;;;8.30;92.92;100353.99;1647549;86;21085;-39
2022/11/03 07:30:16;;;;;;;34.98;18.95;;;;;;;8.28;93.01;100355.69;1653944;85;21120;-46
2022/11/03 07:32:43;;;;;;;34.90;18.20;;;;;;;8.29;93.02;100350.91;1601378;88;21077;-46
2022/11/03 07:35:32;;;;;;;32.83;19.40;;;;;;;8.30;93.07;100350.08;1604769;87;23271;-45
2022/11/03 07:38:11;;;;;;;33.80;18.92;;;;;;;8.30;93.30;100355.30;1600307;87;21052;-40
2022/11/03 07:40:39;;;;;;;31.17;19.20;;;;;;;8.31;93.52;100360.95;1604237;88;21105;-39
2022/11/03 07:43:30;;;;;;;32.40;19.65;;;;;;;8.32;93.58;100357.48;1607971;88;21124;-46
2022/11/03 07:45:59;;;;;;;38.13;19.73;;;;;;;8.33;93.77;100359.22;1578840;90;21086;-47
2022/11/03 07:48:44;;;;;;;30.75;18.57;;;;;;;8.34;93.98;100353.14;1600552;88;21529;-46
2022/11/03 07:51:33;;;;;;;32.53;17.50;;;;;;;8.38;93.99;100358.87;1603874;88;21088;-47
2022/11/03 07:54:11;;;;;;;35.43;19.55;;;;;;;8.39;94.00;100354.09;1559711;90;21654;-47
2022/11/03 07:56:40;;;;;;;34.60;19.70;;;;;;;8.41;94.06;100350.23;1576414;89;21464;-39
2022/11/03 07:59:22;;;;;;;33.88;20.43;;;;;;;8.46;94.30;100336.77;1581853;89;21114;-46
2022/11/03 08:01:54;;;;;;;35.92;18.05;;;;;;;8.53;94.29;100316.00;1586508;89;21090;-47
2022/11/03 08:04:23;;;;;;;29.92;18.25;;;;;;;8.64;94.04;100319.11;1590061;88;21556;-39
2022/11/03 08:06:50;;;;;;;41.42;20.80;;;;;;;8.68;93.62;100319.58;1588197;88;21433;-38
2022/11/03 08:09:18;;;;;;;37.93;18.52;;;;;;;8.71;93.78;100303.55;1601204;86;21052;-46
2022/11/03 08:11:46;;;;;;;32.28;17.70;;;;;;;8.79;94.00;100303.59;1645335;87;21056;-46
2022/11/03 08:14:13;;;;;;;36.60;20.80;;;;;;;8.85;93.63;100299.72;1632193;85;21593;-51
2022/11/03 08:16:39;;;;;;;28.98;18.57;;;;;;;8.88;93.71;100298.45;1588904;87;21118;-47
2022/11/03 08:19:06;;;;;;;31.02;18.07;;;;;;;8.93;93.75;100296.75;1619380;86;21094;-47
2022/11/03 08:21:34;;;;;;;29.52;18.95;;;;;;;8.96;93.85;100295.45;1608542;86;21085;-47
2022/11/03 08:24:01;;;;;;;33.78;19.00;;;;;;;8.98;93.76;100284.58;1620456;86;21037;-40
2022/11/03 08:26:28;;;;;;;31.97;19.67;;;;;;;8.99;93.89;100283.73;1616597;86;21040;-47
2022/11/03 08:28:55;;;;;;;33.45;20.27;;;;;;;9.03;94.15;100297.23;1616671;87;21057;-47
2022/11/03 08:31:26;;;;;;;44.98;24.45;;;;;;;9.10;94.41;100301.17;1619223;86;21025;-47
2022/11/03 08:33:54;;;;;;;43.58;24.07;;;;;;;9.17;94.13;100302.55;1630358;86;21077;-46
2022/11/03 08:36:20;;;;;;;34.85;21.00;;;;;;;9.22;93.66;100301.24;1610617;86;21092;-46
2022/11/03 08:38:47;;;;;;;34.53;21.12;;;;;;;9.26;93.53;100296.48;1623088;88;21109;-38
2022/11/03 08:41:13;;;;;;;37.17;20.55;;;;;;;9.30;93.45;100289.13;1622803;88;21010;-47
2022/11/03 08:43:41;;;;;;;82.90;44.83;;;;;;;9.36;93.52;100296.98;1602199;88;21589;-46
2022/11/03 08:46:08;;;;;;;98.82;53.25;;;;;;;9.39;92.84;100289.58;1618229;88;21059;-39
2022/11/03 08:48:35;;;;;;;73.12;39.42;;;;;;;9.38;92.70;100286.10;1635003;86;21073;-47
2022/11/03 08:51:03;;;;;;;59.73;31.12;;;;;;;9.39;92.75;100289.14;1630669;86;21586;-47
2022/11/03 08:53:30;;;;;;;53.52;31.35;;;;;;;9.38;92.50;100304.38;1617629;88;21117;-39
2022/11/03 08:55:56;;;;;;;40.98;23.20;;;;;;;9.33;92.67;100319.14;1618884;88;21033;-39
2022/11/03 08:58:23;;;;;;;36.00;21.93;;;;;;;9.28;92.60;100316.97;1615796;88;21153;-46
2022/11/03 09:00:49;;;;;;;32.58;19.73;;;;;;;9.22;92.85;100308.67;1621763;86;21049;-39
2022/11/03 09:03:16;;;;;;;61.02;34.73;;;;;;;9.19;93.01;100319.52;1614128;88;21077;-40
2022/11/03 09:05:42;;;;;;;68.75;34.90;;;;;;;9.13;93.30;100312.95;1610429;86;21047;-39
2022/11/03 09:08:11;;;;;;;42.08;24.27;;;;;;;9.10;93.84;100301.17;1613040;88;21132;-39
2022/11/03 09:10:39;;;;;;;39.58;21.37;;;;;;;9.10;94.11;100299.88;1617945;87;21075;-46
2022/11/03 09:13:05;;;;;;;38.00;21.87;;;;;;;9.09;94.37;100302.91;1616999;88;21049;-40
2022/11/03 09:15:32;;;;;;;31.52;19.48;;;;;;;9.07;94.65;100290.30;1629146;86;21122;-39
2022/11/03 09:17:59;;;;;;;33.25;20.05;;;;;;;9.08;95.04;100288.56;1624285;87;21030;-39
2022/11/03 09:20:25;;;;;;;29.37;18.48;;;;;;;9.04;95.31;100292.47;1613348;86;21148;-40
2022/11/03 09:22:52;;;;;;;33.05;18.85;;;;;;;9.05;95.61;100291.61;1621995;88;21536;-46
2022/11/03 09:25:20;;;;;;;31.35;18.95;;;;;;;9.05;95.87;100286.82;1621831;86;21097;-39
2022/11/03 09:27:47;;;;;;;36.25;19.67;;;;;;;9.06;96.11;100279.42;1616016;87;21090;-39
2022/11/03 09:30:16;;;;;;;35.78;18.82;;;;;;;9.06;96.29;100271.59;1630149;87;21647;-47
2022/11/03 09:32:45;;;;;;;29.23;17.65;;;;;;;9.07;96.42;100272.03;1633866;87;21087;-47
2022/11/03 09:35:13;;;;;;;33.15;18.45;;;;;;;9.08;96.49;100263.77;1637661;87;21078;-39
2022/11/03 09:37:42;;;;;;;30.12;17.80;;;;;;;9.10;96.56;100256.80;1631959;87;21019;-46
2022/11/03 09:40:13;;;;;;;31.37;18.35;;;;;;;9.13;96.56;100251.18;1619147;87;21117;-48
2022/11/03 09:42:40;;;;;;;26.53;17.00;;;;;;;9.16;96.67;100258.14;1617149;86;21013;-39
2022/11/03 09:45:08;;;;;;;29.20;17.82;;;;;;;9.18;96.71;100253.82;1613171;88;21838;-46
2022/11/03 09:47:38;;;;;;;32.23;16.42;;;;;;;9.19;96.73;100255.13;1610795;87;21006;-47
2022/11/03 09:50:08;;;;;;;28.00;16.27;;;;;;;9.21;96.22;100245.55;1627992;86;21103;-46
2022/11/03 09:52:36;;;;;;;25.62;15.10;;;;;;;9.23;95.77;100249.50;1583734;89;21544;-47
2022/11/03 09:55:14;;;;;;;25.95;16.50;;;;;;;9.24;95.64;100246.89;1610261;88;21069;-46
2022/11/03 09:57:41;;;;;;;25.50;15.30;;;;;;;9.26;95.47;100240.36;1619865;88;21540;-39
2022/11/03 10:00:18;;;;;;;30.50;15.83;;;;;;;9.27;95.59;100241.66;1601586;88;21058;-46
2022/11/03 10:02:47;;;;;;;26.50;14.85;;;;;;;9.30;95.87;100240.82;1572685;88;21039;-46
2022/11/03 10:05:23;;;;;;;25.00;14.65;;;;;;;9.32;96.26;100239.95;1594601;89;21129;-39
2022/11/03 10:07:53;;;;;;;29.35;17.62;;;;;;;9.34;96.50;100243.89;1595749;89;21019;-40
2022/11/03 10:10:21;;;;;;;32.93;18.52;;;;;;;9.35;97.66;100236.94;1597007;89;21051;-39
2022/11/03 10:12:50;;;;;;;31.68;19.05;;;;;;;9.32;98.93;100229.50;1600990;88;21425;-39
2022/11/03 10:15:18;;;;;;;33.10;18.55;;;;;;;9.30;100.00;100232.99;1598204;88;21030;-46
2022/11/03 10:17:45;;;;;;;30.92;17.60;;;;;;;9.26;100.00;100228.61;1621656;86;21027;-44
2022/11/03 10:20:13;;;;;;;30.82;18.77;;;;;;;9.24;100.00;100227.75;1613491;86;21041;-47
2022/11/03 10:22:42;;;;;;;36.83;20.55;;;;;;;9.25;100.00;100231.66;1620268;86;21089;-39
2022/11/03 10:25:31;;;;;;;29.75;18.75;;;;;;;9.25;100.00;100235.58;1609215;86;21039;-47
2022/11/03 10:28:18;;;;;;;34.70;20.55;;;;;;;9.25;100.00;100231.66;1610773;87;21493;-39
2022/11/03 10:30:56;;;;;;;35.23;20.35;;;;;;;9.21;100.00;100226.41;1624346;86;21057;-48
2022/11/03 10:33:39;;;;;;;40.63;20.95;;;;;;;9.14;100.00;100217.69;1616010;86;21618;-46
2022/11/03 10:36:20;;;;;;;36.95;20.55;;;;;;;9.09;100.00;100218.09;1595460;89;21671;-39
2022/11/03 10:38:47;;;;;;;36.50;20.62;;;;;;;9.06;100.00;100212.88;1606282;88;21093;-46
2022/11/03 10:41:17;;;;;;;41.35;21.57;;;;;;;9.03;100.00;100200.66;1622245;88;21053;-47
2022/11/03 10:44:03;;;;;;;37.55;21.50;;;;;;;9.01;100.00;100195.88;1621267;88;21098;-39
2022/11/03 10:46:30;;;;;;;37.20;20.35;;;;;;;9.02;100.00;100195.45;1617969;87;21059;-40
2022/11/03 10:49:17;;;;;;;35.80;20.02;;;;;;;9.03;100.00;100189.36;1618133;88;21078;-38
2022/11/03 10:51:51;;;;;;;40.20;20.77;;;;;;;9.06;100.00;100185.47;1617946;88;21542;-46
2022/11/03 10:54:22;;;;;;;36.10;18.40;;;;;;;9.05;100.00;100184.60;1617860;88;21701;-40
2022/11/03 10:56:50;;;;;;;31.40;18.73;;;;;;;9.06;100.00;100182.42;1619234;87;21043;-39
2022/11/03 10:59:26;;;;;;;33.38;20.57;;;;;;;9.06;100.00;100179.81;1620021;88;21065;-41
2022/11/03 11:01:52;;;;;;;34.70;17.02;;;;;;;9.09;100.00;100185.47;1622443;87;21081;-40
2022/11/03 11:04:19;;;;;;;27.15;17.42;;;;;;;9.12;100.00;100176.80;1626391;87;21144;-47
2022/11/03 11:06:46;;;;;;;28.73;16.25;;;;;;;9.16;100.00;100174.61;1629573;88;21145;-39
2022/11/03 11:09:24;;;;;;;27.27;17.77;;;;;;;9.19;100.00;100169.42;1616285;87;21476;-46
2022/11/03 11:12:16;;;;;;;32.55;16.90;;;;;;;9.23;100.00;100165.53;1647357;85;21041;-48
2022/11/03 11:14:58;;;;;;;38.20;17.73;;;;;;;9.32;100.00;100164.67;1604040;87;21133;-46
2022/11/03 11:17:46;;;;;;;35.98;19.42;;;;;;;9.45;100.00;100152.51;1622190;86;21655;-39
2022/11/03 11:20:21;;;;;;;23.07;14.63;;;;;;;9.65;100.00;100156.48;1621975;87;21073;-40
2022/11/03 11:22:49;;;;;;;24.72;14.25;;;;;;;9.88;100.00;100151.28;1621749;88;21021;-47
2022/11/03 11:25:17;;;;;;;27.02;16.00;;;;;;;10.00;100.00;100146.92;1621816;88;20994;-46
2022/11/03 11:27:50;;;;;;;26.12;15.75;;;;;;;10.04;100.00;100147.38;1622207;88;21045;-45
2022/11/03 11:30:31;;;;;;;24.12;16.42;;;;;;;10.05;100.00;100144.32;1621638;88;21659;-39
2022/11/03 11:33:00;;;;;;;24.00;14.75;;;;;;;10.07;100.00;100141.26;1595256;88;21021;-46
2022/11/03 11:35:32;;;;;;;26.95;14.50;;;;;;;10.08;100.00;100136.02;1619601;87;21511;-47
2022/11/03 11:38:20;;;;;;;23.83;14.55;;;;;;;10.14;100.00;100138.63;1619143;88;21433;-38
2022/11/03 11:40:50;;;;;;;23.10;14.83;;;;;;;10.17;100.00;100119.47;1618719;88;21103;-38
